Pickens, Mississippi
Current Conditions -  °F | °C
As of 12:54 AM on Friday 28 Nov 2014 (Local Time) from KJAN Reporting Station
Clear Clear  
Wind Chill: 24°   Ceiling: Unl
Heat Index: 31°   Visibility: 10mi
Dew Point: 29°   Wind: 7mph
Humidity: 92%   Direction: 50°NE
Pressure: 30.44"   Gusts: NA
Location:  32.88°N, 89.97°W
Report Text: KJAN 280654Z AUTO 05006KT 10SM CLR M01/M02 A3044 RMK AO2 SLP307 T10061017
Loading
Personal Weather Stations






























Interactive Weather Map New forecast layout! Learn more

10-Day Weather Forecast

Advertisements
Track Severe Weather on mobile